aviador You're here:

KDMO Decoded Metar

SEDALIA in MO, USA
Report Time2017-10-21 14:53:00
UTC Time2017-10-21 15:45:30
Flight Rules vfr VFR
Wind170° at 20 Gusting to 28 kt
W.Decomp.*RWY 18: 19.5 kt HW 4.5 kt LCW
RWY 23: 9.1 kt HW 17.8 kt LCW
W.Rank170° ranks 6
Current wind is above 170° avg. (8.8)
Visibility9999 m
Phenomena:N/A
Clouds:N/A
Expected CloudBase > 2,000 ft AGL from Temp-Dew spread
CeilingNone
Temp22°C (ISA +9)
Dew Point17°C (73% RH)
AAT17.1°C
QNH1014 hPa
Density Alt2,149 ft
Elevation899 ft
Report Wrong Elevation
Raw Report
KDMO 211453Z AUTO 17020G28KT 10SM CLR 22/17 A2994 RMK AO2 PK WND
16028/1441 SLP132 T02220167 50003=

Extra information for KDMO:More info

Metar Taf Metar & Taf Last 4 Metars F.Rules Stats Wind Profile Meteogram Temp Stats Airport Information Weather charts Add Link Nearby VenuesMetar ALERT Operation Metar Decoded Social comments

AIRNAV info for KDMO